sensor_id;sensor_type;location;lat;lon;timestamp;P1;durP1;ratioP1;P2;durP2;ratioP2
142;SDS011;63667;49.046;8.468;2023-04-01T00:02:20;2.30;;;1.60;;
142;SDS011;63667;49.046;8.468;2023-04-01T00:04:48;2.80;;;1.60;;
142;SDS011;63667;49.046;8.468;2023-04-01T00:07:15;9.37;;;2.30;;
142;SDS011;63667;49.046;8.468;2023-04-01T00:09:43;4.37;;;1.97;;
142;SDS011;63667;49.046;8.468;2023-04-01T00:12:11;2.83;;;1.70;;
142;SDS011;63667;49.046;8.468;2023-04-01T00:14:39;6.50;;;2.13;;
142;SDS011;63667;49.046;8.468;2023-04-01T00:17:07;6.60;;;1.90;;
142;SDS011;63667;49.046;8.468;2023-04-01T00:19:34;5.80;;;1.90;;
142;SDS011;63667;49.046;8.468;2023-04-01T00:22:01;4.20;;;2.30;;
142;SDS011;63667;49.046;8.468;2023-04-01T00:24:28;5.87;;;1.90;;
142;SDS011;63667;49.046;8.468;2023-04-01T00:26:55;6.23;;;2.30;;
142;SDS011;63667;49.046;8.468;2023-04-01T00:29:22;6.80;;;2.23;;
142;SDS011;63667;49.046;8.468;2023-04-01T00:31:53;3.50;;;2.13;;
142;SDS011;63667;49.046;8.468;2023-04-01T00:34:21;5.87;;;1.93;;
142;SDS011;63667;49.046;8.468;2023-04-01T00:36:50;4.50;;;2.10;;
142;SDS011;63667;49.046;8.468;2023-04-01T00:39:18;4.13;;;1.90;;
142;SDS011;63667;49.046;8.468;2023-04-01T00:41:46;5.60;;;1.90;;
142;SDS011;63667;49.046;8.468;2023-04-01T00:44:17;4.10;;;1.97;;
142;SDS011;63667;49.046;8.468;2023-04-01T00:46:44;7.17;;;2.30;;
142;SDS011;63667;49.046;8.468;2023-04-01T00:49:12;2.33;;;1.90;;
142;SDS011;63667;49.046;8.468;2023-04-01T00:51:40;3.83;;;1.77;;
142;SDS011;63667;49.046;8.468;2023-04-01T00:54:07;4.83;;;1.90;;
142;SDS011;63667;49.046;8.468;2023-04-01T00:56:39;5.00;;;1.97;;
142;SDS011;63667;49.046;8.468;2023-04-01T00:59:10;12.20;;;2.00;;
142;SDS011;63667;49.046;8.468;2023-04-01T01:01:37;5.43;;;2.03;;
142;SDS011;63667;49.046;8.468;2023-04-01T01:04:05;7.53;;;1.93;;
142;SDS011;63667;49.046;8.468;2023-04-01T01:06:42;3.20;;;1.97;;
142;SDS011;63667;49.046;8.468;2023-04-01T01:16:58;3.43;;;1.93;;
142;SDS011;63667;49.046;8.468;2023-04-01T01:22:16;8.33;;;1.90;;
142;SDS011;63667;49.046;8.468;2023-04-01T01:27:33;7.90;;;2.10;;
142;SDS011;63667;49.046;8.468;2023-04-01T01:35:56;6.90;;;2.10;;
142;SDS011;63667;49.046;8.468;2023-04-01T01:38:26;4.53;;;2.00;;
142;SDS011;63667;49.046;8.468;2023-04-01T01:40:54;2.20;;;1.70;;
142;SDS011;63667;49.046;8.468;2023-04-01T01:43:32;3.90;;;1.70;;
142;SDS011;63667;49.046;8.468;2023-04-01T01:46:01;5.00;;;1.80;;
142;SDS011;63667;49.046;8.468;2023-04-01T01:48:28;5.33;;;1.90;;
142;SDS011;63667;49.046;8.468;2023-04-01T01:50:56;3.40;;;1.90;;
142;SDS011;63667;49.046;8.468;2023-04-01T01:53:24;5.63;;;1.70;;
142;SDS011;63667;49.046;8.468;2023-04-01T01:55:50;5.83;;;1.77;;
142;SDS011;63667;49.046;8.468;2023-04-01T02:00:52;2.60;;;1.63;;
142;SDS011;63667;49.046;8.468;2023-04-01T02:03:20;5.20;;;1.60;;
142;SDS011;63667;49.046;8.468;2023-04-01T02:05:48;5.77;;;1.77;;
142;SDS011;63667;49.046;8.468;2023-04-01T02:08:18;3.40;;;1.63;;
142;SDS011;63667;49.046;8.468;2023-04-01T02:10:51;2.60;;;1.40;;
142;SDS011;63667;49.046;8.468;2023-04-01T02:13:26;5.70;;;1.50;;
142;SDS011;63667;49.046;8.468;2023-04-01T02:15:56;2.93;;;1.47;;
142;SDS011;63667;49.046;8.468;2023-04-01T02:18:25;2.60;;;1.50;;
142;SDS011;63667;49.046;8.468;2023-04-01T02:20:53;2.70;;;1.40;;
142;SDS011;63667;49.046;8.468;2023-04-01T02:23:21;2.47;;;1.43;;
142;SDS011;63667;49.046;8.468;2023-04-01T02:25:49;2.30;;;1.43;;
142;SDS011;63667;49.046;8.468;2023-04-01T02:28:17;1.93;;;1.50;;
142;SDS011;63667;49.046;8.468;2023-04-01T02:30:46;2.00;;;1.30;;
142;SDS011;63667;49.046;8.468;2023-04-01T02:33:14;2.00;;;1.50;;
142;SDS011;63667;49.046;8.468;2023-04-01T02:35:40;2.40;;;1.40;;
142;SDS011;63667;49.046;8.468;2023-04-01T02:38:08;2.73;;;1.30;;
142;SDS011;63667;49.046;8.468;2023-04-01T02:40:44;2.00;;;1.40;;
142;SDS011;63667;49.046;8.468;2023-04-01T02:43:11;2.67;;;1.73;;
142;SDS011;63667;49.046;8.468;2023-04-01T02:45:39;3.50;;;1.50;;
142;SDS011;63667;49.046;8.468;2023-04-01T02:48:05;1.70;;;1.20;;
142;SDS011;63667;49.046;8.468;2023-04-01T02:50:33;3.73;;;1.40;;
142;SDS011;63667;49.046;8.468;2023-04-01T02:53:01;3.53;;;1.40;;
142;SDS011;63667;49.046;8.468;2023-04-01T02:55:29;4.17;;;1.20;;
142;SDS011;63667;49.046;8.468;2023-04-01T02:57:56;2.77;;;1.37;;
142;SDS011;63667;49.046;8.468;2023-04-01T03:00:23;4.00;;;1.53;;
142;SDS011;63667;49.046;8.468;2023-04-01T03:02:51;1.90;;;1.30;;
142;SDS011;63667;49.046;8.468;2023-04-01T03:05:18;2.07;;;1.33;;
142;SDS011;63667;49.046;8.468;2023-04-01T03:07:46;2.90;;;1.30;;
142;SDS011;63667;49.046;8.468;2023-04-01T03:10:13;2.90;;;1.27;;
142;SDS011;63667;49.046;8.468;2023-04-01T03:12:40;4.13;;;1.30;;
142;SDS011;63667;49.046;8.468;2023-04-01T03:15:09;3.40;;;1.33;;
142;SDS011;63667;49.046;8.468;2023-04-01T03:17:37;4.20;;;1.43;;
142;SDS011;63667;49.046;8.468;2023-04-01T03:20:05;3.30;;;1.30;;
142;SDS011;63667;49.046;8.468;2023-04-01T03:22:34;5.97;;;1.30;;
142;SDS011;63667;49.046;8.468;2023-04-01T03:25:01;2.47;;;1.40;;
142;SDS011;63667;49.046;8.468;2023-04-01T03:27:28;2.00;;;1.33;;
142;SDS011;63667;49.046;8.468;2023-04-01T03:29:56;2.93;;;1.50;;
142;SDS011;63667;49.046;8.468;2023-04-01T03:32:22;1.80;;;1.30;;
142;SDS011;63667;49.046;8.468;2023-04-01T03:34:50;4.57;;;1.50;;
142;SDS011;63667;49.046;8.468;2023-04-01T03:37:18;3.37;;;1.53;;
142;SDS011;63667;49.046;8.468;2023-04-01T03:39:45;5.20;;;1.50;;
142;SDS011;63667;49.046;8.468;2023-04-01T03:42:12;1.80;;;1.40;;
142;SDS011;63667;49.046;8.468;2023-04-01T03:44:40;3.13;;;1.47;;
142;SDS011;63667;49.046;8.468;2023-04-01T03:47:08;2.97;;;1.30;;
142;SDS011;63667;49.046;8.468;2023-04-01T03:49:35;3.80;;;1.40;;
142;SDS011;63667;49.046;8.468;2023-04-01T03:52:04;3.70;;;1.60;;
142;SDS011;63667;49.046;8.468;2023-04-01T03:54:43;4.33;;;1.40;;
142;SDS011;63667;49.046;8.468;2023-04-01T03:57:10;3.20;;;1.50;;
142;SDS011;63667;49.046;8.468;2023-04-01T03:59:38;3.70;;;1.50;;
142;SDS011;63667;49.046;8.468;2023-04-01T04:02:06;3.60;;;1.53;;
142;SDS011;63667;49.046;8.468;2023-04-01T04:04:33;3.13;;;1.60;;
142;SDS011;63667;49.046;8.468;2023-04-01T04:07:00;4.60;;;1.60;;
142;SDS011;63667;49.046;8.468;2023-04-01T04:09:29;3.63;;;1.83;;
142;SDS011;63667;49.046;8.468;2023-04-01T04:11:56;2.90;;;1.53;;
142;SDS011;63667;49.046;8.468;2023-04-01T04:14:24;2.27;;;1.63;;
142;SDS011;63667;49.046;8.468;2023-04-01T04:16:52;2.90;;;1.50;;
142;SDS011;63667;49.046;8.468;2023-04-01T04:19:20;5.20;;;1.80;;
142;SDS011;63667;49.046;8.468;2023-04-01T04:21:48;7.10;;;1.63;;
142;SDS011;63667;49.046;8.468;2023-04-01T04:24:15;4.93;;;1.80;;
142;SDS011;63667;49.046;8.468;2023-04-01T04:26:42;6.80;;;1.70;;
142;SDS011;63667;49.046;8.468;2023-04-01T04:29:10;2.47;;;1.63;;
142;SDS011;63667;49.046;8.468;2023-04-01T04:31:37;3.43;;;1.70;;
142;SDS011;63667;49.046;8.468;2023-04-01T04:34:04;1.90;;;1.50;;
142;SDS011;63667;49.046;8.468;2023-04-01T04:36:32;4.80;;;2.00;;
142;SDS011;63667;49.046;8.468;2023-04-01T04:38:59;7.30;;;1.83;;
142;SDS011;63667;49.046;8.468;2023-04-01T04:41:28;4.23;;;1.63;;
142;SDS011;63667;49.046;8.468;2023-04-01T04:43:56;4.83;;;1.90;;
142;SDS011;63667;49.046;8.468;2023-04-01T04:46:24;4.00;;;1.70;;
142;SDS011;63667;49.046;8.468;2023-04-01T04:48:51;4.93;;;2.07;;
142;SDS011;63667;49.046;8.468;2023-04-01T04:51:20;3.33;;;1.60;;
142;SDS011;63667;49.046;8.468;2023-04-01T04:53:48;5.50;;;2.00;;
142;SDS011;63667;49.046;8.468;2023-04-01T04:56:18;5.07;;;2.00;;
142;SDS011;63667;49.046;8.468;2023-04-01T04:58:47;7.03;;;2.00;;
142;SDS011;63667;49.046;8.468;2023-04-01T05:01:14;17.63;;;2.13;;
142;SDS011;63667;49.046;8.468;2023-04-01T05:03:41;3.63;;;1.77;;
142;SDS011;63667;49.046;8.468;2023-04-01T05:06:09;5.73;;;1.87;;
142;SDS011;63667;49.046;8.468;2023-04-01T05:08:37;6.80;;;1.67;;
142;SDS011;63667;49.046;8.468;2023-04-01T05:11:07;7.40;;;1.70;;
142;SDS011;63667;49.046;8.468;2023-04-01T05:13:36;3.10;;;1.80;;
142;SDS011;63667;49.046;8.468;2023-04-01T05:16:03;4.20;;;1.90;;
142;SDS011;63667;49.046;8.468;2023-04-01T05:18:35;8.93;;;1.90;;
142;SDS011;63667;49.046;8.468;2023-04-01T05:21:03;5.37;;;1.77;;
142;SDS011;63667;49.046;8.468;2023-04-01T05:23:30;3.73;;;2.10;;
142;SDS011;63667;49.046;8.468;2023-04-01T05:26:02;4.57;;;1.60;;
142;SDS011;63667;49.046;8.468;2023-04-01T05:28:29;5.33;;;1.70;;
142;SDS011;63667;49.046;8.468;2023-04-01T05:30:58;5.60;;;1.80;;
142;SDS011;63667;49.046;8.468;2023-04-01T05:33:26;4.17;;;1.43;;
142;SDS011;63667;49.046;8.468;2023-04-01T05:35:53;3.50;;;1.60;;
142;SDS011;63667;49.046;8.468;2023-04-01T05:38:21;2.40;;;1.73;;
142;SDS011;63667;49.046;8.468;2023-04-01T05:40:47;3.57;;;1.40;;
142;SDS011;63667;49.046;8.468;2023-04-01T05:43:15;2.00;;;1.40;;
142;SDS011;63667;49.046;8.468;2023-04-01T05:45:41;3.60;;;1.70;;
142;SDS011;63667;49.046;8.468;2023-04-01T05:48:09;6.23;;;1.60;;
142;SDS011;63667;49.046;8.468;2023-04-01T05:50:36;1.90;;;1.43;;
142;SDS011;63667;49.046;8.468;2023-04-01T05:53:04;2.73;;;1.50;;
142;SDS011;63667;49.046;8.468;2023-04-01T05:55:31;6.77;;;2.03;;
142;SDS011;63667;49.046;8.468;2023-04-01T05:57:58;8.23;;;2.70;;
142;SDS011;63667;49.046;8.468;2023-04-01T06:00:26;3.80;;;1.73;;
142;SDS011;63667;49.046;8.468;2023-04-01T06:02:54;5.40;;;1.80;;
142;SDS011;63667;49.046;8.468;2023-04-01T06:05:24;2.90;;;1.70;;
142;SDS011;63667;49.046;8.468;2023-04-01T06:07:52;5.63;;;1.70;;
142;SDS011;63667;49.046;8.468;2023-04-01T06:10:21;2.80;;;1.60;;
142;SDS011;63667;49.046;8.468;2023-04-01T06:17:51;3.07;;;1.70;;
142;SDS011;63667;49.046;8.468;2023-04-01T06:23:17;2.90;;;1.50;;
142;SDS011;63667;49.046;8.468;2023-04-01T06:31:17;3.00;;;1.50;;
142;SDS011;63667;49.046;8.468;2023-04-01T06:37:38;7.37;;;2.00;;
142;SDS011;63667;49.046;8.468;2023-04-01T06:44:49;2.30;;;1.53;;
142;SDS011;63667;49.046;8.468;2023-04-01T06:49:50;2.10;;;1.40;;
142;SDS011;63667;49.046;8.468;2023-04-01T06:52:26;3.33;;;1.77;;
142;SDS011;63667;49.046;8.468;2023-04-01T06:55:02;3.37;;;1.80;;
142;SDS011;63667;49.046;8.468;2023-04-01T06:57:38;4.83;;;2.00;;
142;SDS011;63667;49.046;8.468;2023-04-01T07:00:12;5.53;;;2.67;;
142;SDS011;63667;49.046;8.468;2023-04-01T07:02:39;6.47;;;1.80;;
142;SDS011;63667;49.046;8.468;2023-04-01T07:05:10;5.10;;;2.07;;
142;SDS011;63667;49.046;8.468;2023-04-01T07:10:05;4.03;;;1.97;;
142;SDS011;63667;49.046;8.468;2023-04-01T07:12:43;2.00;;;1.50;;
142;SDS011;63667;49.046;8.468;2023-04-01T07:15:18;6.60;;;1.77;;
142;SDS011;63667;49.046;8.468;2023-04-01T07:17:45;5.37;;;2.10;;
142;SDS011;63667;49.046;8.468;2023-04-01T07:20:22;3.97;;;2.00;;
142;SDS011;63667;49.046;8.468;2023-04-01T07:22:52;4.80;;;2.10;;
142;SDS011;63667;49.046;8.468;2023-04-01T07:25:21;3.90;;;2.07;;
142;SDS011;63667;49.046;8.468;2023-04-01T07:27:52;3.13;;;1.70;;
142;SDS011;63667;49.046;8.468;2023-04-01T07:30:21;2.80;;;1.67;;
142;SDS011;63667;49.046;8.468;2023-04-01T07:32:49;2.53;;;1.80;;
142;SDS011;63667;49.046;8.468;2023-04-01T07:35:30;3.63;;;1.70;;
142;SDS011;63667;49.046;8.468;2023-04-01T07:38:50;4.43;;;2.10;;
142;SDS011;63667;49.046;8.468;2023-04-01T07:46:11;3.40;;;1.67;;
142;SDS011;63667;49.046;8.468;2023-04-01T07:51:29;3.33;;;2.20;;
142;SDS011;63667;49.046;8.468;2023-04-01T07:57:10;2.30;;;1.70;;
142;SDS011;63667;49.046;8.468;2023-04-01T08:09:43;7.10;;;1.90;;
142;SDS011;63667;49.046;8.468;2023-04-01T08:15:34;2.20;;;2.00;;
142;SDS011;63667;49.046;8.468;2023-04-01T08:18:02;3.47;;;1.80;;
142;SDS011;63667;49.046;8.468;2023-04-01T08:20:45;5.30;;;1.87;;
142;SDS011;63667;49.046;8.468;2023-04-01T08:23:21;6.57;;;2.30;;
142;SDS011;63667;49.046;8.468;2023-04-01T08:30:58;4.83;;;1.73;;
142;SDS011;63667;49.046;8.468;2023-04-01T08:33:28;3.13;;;1.83;;
142;SDS011;63667;49.046;8.468;2023-04-01T08:38:25;3.50;;;1.70;;
142;SDS011;63667;49.046;8.468;2023-04-01T08:43:28;4.50;;;1.70;;
142;SDS011;63667;49.046;8.468;2023-04-01T08:56:42;5.73;;;1.90;;
142;SDS011;63667;49.046;8.468;2023-04-01T09:09:36;3.47;;;1.90;;
142;SDS011;63667;49.046;8.468;2023-04-01T09:17:13;4.87;;;1.90;;
142;SDS011;63667;49.046;8.468;2023-04-01T09:22:41;3.40;;;2.03;;
142;SDS011;63667;49.046;8.468;2023-04-01T09:27:54;7.90;;;1.83;;
142;SDS011;63667;49.046;8.468;2023-04-01T09:30:41;2.80;;;1.80;;
142;SDS011;63667;49.046;8.468;2023-04-01T09:36:07;4.13;;;1.70;;
142;SDS011;63667;49.046;8.468;2023-04-01T09:38:57;3.43;;;2.10;;
142;SDS011;63667;49.046;8.468;2023-04-01T09:44:00;2.43;;;1.60;;
142;SDS011;63667;49.046;8.468;2023-04-01T10:00:25;3.60;;;1.67;;
142;SDS011;63667;49.046;8.468;2023-04-01T10:16:29;2.47;;;2.00;;
142;SDS011;63667;49.046;8.468;2023-04-01T10:24:21;5.60;;;1.80;;
142;SDS011;63667;49.046;8.468;2023-04-01T10:46:03;4.40;;;2.27;;
142;SDS011;63667;49.046;8.468;2023-04-01T10:51:17;2.63;;;1.87;;
142;SDS011;63667;49.046;8.468;2023-04-01T10:53:50;2.30;;;1.90;;
142;SDS011;63667;49.046;8.468;2023-04-01T11:06:57;2.00;;;1.57;;
142;SDS011;63667;49.046;8.468;2023-04-01T11:12:43;2.87;;;1.90;;
142;SDS011;63667;49.046;8.468;2023-04-01T11:15:08;2.10;;;1.60;;
142;SDS011;63667;49.046;8.468;2023-04-01T11:23:01;3.83;;;1.90;;
142;SDS011;63667;49.046;8.468;2023-04-01T11:25:35;3.47;;;1.80;;
142;SDS011;63667;49.046;8.468;2023-04-01T11:43:37;2.53;;;1.90;;
142;SDS011;63667;49.046;8.468;2023-04-01T11:48:35;3.10;;;1.90;;
142;SDS011;63667;49.046;8.468;2023-04-01T12:04:19;3.90;;;1.80;;
142;SDS011;63667;49.046;8.468;2023-04-01T12:17:10;4.53;;;1.80;;
142;SDS011;63667;49.046;8.468;2023-04-01T12:24:56;3.20;;;1.80;;
142;SDS011;63667;49.046;8.468;2023-04-01T12:27:38;4.10;;;1.90;;
142;SDS011;63667;49.046;8.468;2023-04-01T12:37:33;2.37;;;1.80;;
142;SDS011;63667;49.046;8.468;2023-04-01T12:47:50;2.27;;;1.70;;
142;SDS011;63667;49.046;8.468;2023-04-01T12:55:40;4.27;;;2.00;;
142;SDS011;63667;49.046;8.468;2023-04-01T13:10:59;3.53;;;2.00;;
142;SDS011;63667;49.046;8.468;2023-04-01T13:18:57;3.07;;;2.13;;
142;SDS011;63667;49.046;8.468;2023-04-01T13:39:19;2.10;;;1.60;;
142;SDS011;63667;49.046;8.468;2023-04-01T13:52:14;2.10;;;1.47;;
142;SDS011;63667;49.046;8.468;2023-04-01T13:54:57;1.90;;;1.57;;
142;SDS011;63667;49.046;8.468;2023-04-01T14:05:21;2.07;;;1.70;;
142;SDS011;63667;49.046;8.468;2023-04-01T14:12:58;4.90;;;1.80;;
142;SDS011;63667;49.046;8.468;2023-04-01T14:23:13;2.50;;;1.67;;
142;SDS011;63667;49.046;8.468;2023-04-01T14:30:58;6.80;;;1.73;;
142;SDS011;63667;49.046;8.468;2023-04-01T14:36:22;2.10;;;1.60;;
142;SDS011;63667;49.046;8.468;2023-04-01T14:49:22;3.50;;;2.07;;
142;SDS011;63667;49.046;8.468;2023-04-01T14:51:50;3.93;;;2.23;;
142;SDS011;63667;49.046;8.468;2023-04-01T14:54:30;3.67;;;1.73;;
142;SDS011;63667;49.046;8.468;2023-04-01T14:57:14;2.67;;;1.60;;
142;SDS011;63667;49.046;8.468;2023-04-01T14:59:49;2.30;;;1.67;;
142;SDS011;63667;49.046;8.468;2023-04-01T15:13:19;2.90;;;1.90;;
142;SDS011;63667;49.046;8.468;2023-04-01T15:26:13;2.07;;;1.90;;
142;SDS011;63667;49.046;8.468;2023-04-01T15:58:15;5.63;;;2.13;;
142;SDS011;63667;49.046;8.468;2023-04-01T16:01:07;2.80;;;1.83;;
142;SDS011;63667;49.046;8.468;2023-04-01T16:16:53;5.47;;;3.33;;
142;SDS011;63667;49.046;8.468;2023-04-01T16:19:51;3.27;;;2.60;;
142;SDS011;63667;49.046;8.468;2023-04-01T16:25:13;7.67;;;3.30;;
142;SDS011;63667;49.046;8.468;2023-04-01T16:27:53;5.73;;;3.73;;
142;SDS011;63667;49.046;8.468;2023-04-01T16:30:26;5.23;;;3.23;;
142;SDS011;63667;49.046;8.468;2023-04-01T16:32:59;3.43;;;2.50;;
142;SDS011;63667;49.046;8.468;2023-04-01T16:45:36;3.80;;;2.93;;
142;SDS011;63667;49.046;8.468;2023-04-01T16:48:11;2.60;;;2.30;;
142;SDS011;63667;49.046;8.468;2023-04-01T16:50:53;6.33;;;3.10;;
142;SDS011;63667;49.046;8.468;2023-04-01T16:55:55;3.83;;;2.70;;
142;SDS011;63667;49.046;8.468;2023-04-01T16:58:37;3.40;;;2.50;;
142;SDS011;63667;49.046;8.468;2023-04-01T17:01:07;6.47;;;2.90;;
142;SDS011;63667;49.046;8.468;2023-04-01T17:03:57;5.70;;;2.90;;
142;SDS011;63667;49.046;8.468;2023-04-01T17:06:32;3.57;;;2.60;;
142;SDS011;63667;49.046;8.468;2023-04-01T17:11:48;8.40;;;2.67;;
142;SDS011;63667;49.046;8.468;2023-04-01T17:27:04;4.30;;;2.80;;
142;SDS011;63667;49.046;8.468;2023-04-01T17:29:46;4.93;;;2.70;;
142;SDS011;63667;49.046;8.468;2023-04-01T17:35:05;4.30;;;2.67;;
142;SDS011;63667;49.046;8.468;2023-04-01T17:40:17;4.57;;;3.13;;
142;SDS011;63667;49.046;8.468;2023-04-01T17:42:56;5.17;;;2.67;;
142;SDS011;63667;49.046;8.468;2023-04-01T18:16:55;4.93;;;2.70;;
142;SDS011;63667;49.046;8.468;2023-04-01T18:27:50;8.40;;;2.50;;
142;SDS011;63667;49.046;8.468;2023-04-01T18:30:21;3.17;;;2.27;;
142;SDS011;63667;49.046;8.468;2023-04-01T18:33:24;4.53;;;2.83;;
142;SDS011;63667;49.046;8.468;2023-04-01T18:35:52;3.37;;;2.33;;
142;SDS011;63667;49.046;8.468;2023-04-01T18:41:26;8.30;;;2.70;;
142;SDS011;63667;49.046;8.468;2023-04-01T18:43:59;4.43;;;2.47;;
142;SDS011;63667;49.046;8.468;2023-04-01T18:54:27;6.30;;;2.60;;
142;SDS011;63667;49.046;8.468;2023-04-01T18:57:00;4.37;;;2.63;;
142;SDS011;63667;49.046;8.468;2023-04-01T19:07:41;2.73;;;2.40;;
142;SDS011;63667;49.046;8.468;2023-04-01T19:12:52;6.50;;;2.60;;
142;SDS011;63667;49.046;8.468;2023-04-01T19:15:29;6.10;;;2.73;;
142;SDS011;63667;49.046;8.468;2023-04-01T19:25:38;5.07;;;2.63;;
142;SDS011;63667;49.046;8.468;2023-04-01T19:30:59;7.63;;;2.90;;
142;SDS011;63667;49.046;8.468;2023-04-01T19:36:00;6.70;;;2.60;;
142;SDS011;63667;49.046;8.468;2023-04-01T19:38:36;6.50;;;3.10;;
142;SDS011;63667;49.046;8.468;2023-04-01T19:44:18;3.33;;;2.60;;
142;SDS011;63667;49.046;8.468;2023-04-01T19:46:51;2.73;;;2.30;;
142;SDS011;63667;49.046;8.468;2023-04-01T19:49:42;4.67;;;2.30;;
142;SDS011;63667;49.046;8.468;2023-04-01T19:52:27;4.83;;;2.20;;
142;SDS011;63667;49.046;8.468;2023-04-01T19:57:34;5.37;;;2.83;;
142;SDS011;63667;49.046;8.468;2023-04-01T20:00:24;2.93;;;2.60;;
142;SDS011;63667;49.046;8.468;2023-04-01T20:02:57;6.60;;;2.93;;
142;SDS011;63667;49.046;8.468;2023-04-01T20:13:38;4.00;;;2.90;;
142;SDS011;63667;49.046;8.468;2023-04-01T20:16:12;7.30;;;2.80;;
142;SDS011;63667;49.046;8.468;2023-04-01T20:18:56;4.27;;;2.37;;
142;SDS011;63667;49.046;8.468;2023-04-01T20:21:44;4.53;;;2.70;;
142;SDS011;63667;49.046;8.468;2023-04-01T20:24:17;5.43;;;2.37;;
142;SDS011;63667;49.046;8.468;2023-04-01T20:26:50;6.53;;;2.80;;
142;SDS011;63667;49.046;8.468;2023-04-01T20:29:36;6.03;;;2.50;;
142;SDS011;63667;49.046;8.468;2023-04-01T20:32:13;4.07;;;2.40;;
142;SDS011;63667;49.046;8.468;2023-04-01T20:40:31;7.13;;;2.93;;
142;SDS011;63667;49.046;8.468;2023-04-01T20:43:04;6.70;;;2.50;;
142;SDS011;63667;49.046;8.468;2023-04-01T20:45:46;5.23;;;3.07;;
142;SDS011;63667;49.046;8.468;2023-04-01T20:51:06;5.60;;;2.87;;
142;SDS011;63667;49.046;8.468;2023-04-01T21:06:35;3.20;;;2.60;;
142;SDS011;63667;49.046;8.468;2023-04-01T21:09:12;5.60;;;2.47;;
142;SDS011;63667;49.046;8.468;2023-04-01T21:20:02;3.37;;;3.00;;
142;SDS011;63667;49.046;8.468;2023-04-01T21:25:17;8.33;;;2.50;;
142;SDS011;63667;49.046;8.468;2023-04-01T21:33:34;4.43;;;2.70;;
142;SDS011;63667;49.046;8.468;2023-04-01T21:36:12;6.00;;;2.80;;
142;SDS011;63667;49.046;8.468;2023-04-01T21:57:38;5.37;;;2.80;;
142;SDS011;63667;49.046;8.468;2023-04-01T22:07:46;4.10;;;2.60;;
142;SDS011;63667;49.046;8.468;2023-04-01T22:12:50;4.03;;;2.20;;
142;SDS011;63667;49.046;8.468;2023-04-01T22:18:20;4.47;;;2.37;;
142;SDS011;63667;49.046;8.468;2023-04-01T22:20:56;2.83;;;2.17;;
142;SDS011;63667;49.046;8.468;2023-04-01T22:23:31;2.60;;;1.97;;
142;SDS011;63667;49.046;8.468;2023-04-01T22:31:19;3.50;;;2.40;;
142;SDS011;63667;49.046;8.468;2023-04-01T22:42:42;2.47;;;2.03;;
142;SDS011;63667;49.046;8.468;2023-04-01T22:44:45;2.63;;;2.40;;
142;SDS011;63667;49.046;8.468;2023-04-01T22:50:07;2.40;;;1.77;;
142;SDS011;63667;49.046;8.468;2023-04-01T22:52:42;2.10;;;2.00;;
142;SDS011;63667;49.046;8.468;2023-04-01T22:55:32;1.97;;;1.77;;
142;SDS011;63667;49.046;8.468;2023-04-01T23:05:39;2.57;;;1.93;;
142;SDS011;63667;49.046;8.468;2023-04-01T23:10:49;4.47;;;2.13;;
142;SDS011;63667;49.046;8.468;2023-04-01T23:13:20;2.87;;;1.80;;
142;SDS011;63667;49.046;8.468;2023-04-01T23:15:50;2.07;;;1.80;;
142;SDS011;63667;49.046;8.468;2023-04-01T23:18:22;2.27;;;1.90;;
142;SDS011;63667;49.046;8.468;2023-04-01T23:20:53;4.13;;;1.70;;
142;SDS011;63667;49.046;8.468;2023-04-01T23:23:36;9.00;;;2.20;;
142;SDS011;63667;49.046;8.468;2023-04-01T23:26:09;3.60;;;2.13;;
142;SDS011;63667;49.046;8.468;2023-04-01T23:28:56;2.20;;;1.90;;
142;SDS011;63667;49.046;8.468;2023-04-01T23:31:38;2.43;;;1.77;;
142;SDS011;63667;49.046;8.468;2023-04-01T23:34:20;3.30;;;1.77;;
142;SDS011;63667;49.046;8.468;2023-04-01T23:36:48;2.47;;;1.60;;
142;SDS011;63667;49.046;8.468;2023-04-01T23:39:26;3.50;;;2.00;;
142;SDS011;63667;49.046;8.468;2023-04-01T23:42:00;2.83;;;1.77;;
142;SDS011;63667;49.046;8.468;2023-04-01T23:44:30;2.23;;;1.93;;
142;SDS011;63667;49.046;8.468;2023-04-01T23:46:58;2.00;;;1.77;;
142;SDS011;63667;49.046;8.468;2023-04-01T23:50:12;2.30;;;1.87;;
142;SDS011;63667;49.046;8.468;2023-04-01T23:57:29;4.77;;;2.20;;
